Time,TemperatureF,DewpointF,PressureIn,WindDirection,WindDirectionDegrees,WindSpeedMPH,WindSpeedGustMPH,Humidity,HourlyPrecipIn,Conditions,Clouds,dailyrainin,SoftwareType,DateUTC
2013-01-27 00:01:00,22.6,14.8,31.66,ESE,122,3.1,3.6,71,0.00,,OVC,0.00,VWS V13.01,2013-01-27 06:01:00,
2013-01-27 00:06:00,22.5,14.6,31.66,SE,127,2.7,2.7,71,0.00,,OVC,0.00,VWS V13.01,2013-01-27 06:06:00,
2013-01-27 00:11:00,22.5,14.6,31.66,ESE,119,3.6,3.6,71,0.00,,OVC,0.00,VWS V13.01,2013-01-27 06:11:00,
2013-01-27 00:16:00,22.5,14.6,31.66,SE,142,5.4,5.4,71,0.00,,OVC,0.00,VWS V13.01,2013-01-27 06:16:00,
2013-01-27 00:21:00,22.5,14.6,31.66,SE,130,4.0,4.0,71,0.00,,OVC,0.00,VWS V13.01,2013-01-27 06:21:00,
2013-01-27 00:26:00,22.5,14.6,31.66,SSE,163,3.1,3.1,71,0.00,,OVC,0.00,VWS V13.01,2013-01-27 06:26:00,
2013-01-27 00:31:00,22.3,14.5,31.69,SE,139,2.7,4.0,71,0.00,,OVC,0.00,VWS V13.01,2013-01-27 06:31:00,
2013-01-27 00:36:00,22.3,14.5,31.69,South,171,3.1,4.0,71,0.00,,OVC,0.00,VWS V13.01,2013-01-27 06:36:00,
2013-01-27 00:41:00,22.3,14.5,31.69,SE,132,0.0,3.6,71,0.00,,OVC,0.00,VWS V13.01,2013-01-27 06:41:00,
2013-01-27 00:46:00,22.3,14.5,31.66,ESE,119,2.7,4.0,71,0.00,,OVC,0.00,VWS V13.01,2013-01-27 06:46:00,
2013-01-27 00:51:00,22.3,14.5,31.66,SE,144,3.1,4.9,71,0.00,,OVC,0.00,VWS V13.01,2013-01-27 06:51:00,
2013-01-27 00:56:00,22.3,14.5,31.66,SE,131,4.9,5.4,71,0.00,,OVC,0.00,VWS V13.01,2013-01-27 06:56:00,
2013-01-27 01:01:00,22.1,14.3,31.69,SSE,152,5.4,5.4,71,0.00,,OVC,0.00,VWS V13.01,2013-01-27 07:01:00,
2013-01-27 01:06:00,22.1,14.3,31.69,SSE,155,2.7,2.7,71,0.00,,OVC,0.00,VWS V13.01,2013-01-27 07:06:00,
2013-01-27 01:13:00,21.9,14.1,31.69,SSE,151,0.0,2.2,71,0.00,,OVC,0.00,VWS V13.01,2013-01-27 07:13:00,
2013-01-27 01:18:00,21.9,14.1,31.66,ESE,117,3.1,7.2,71,0.00,,OVC,0.00,VWS V13.01,2013-01-27 07:18:00,
2013-01-27 01:23:00,21.9,14.1,31.66,SSE,157,2.2,3.6,71,0.00,,OVC,0.00,VWS V13.01,2013-01-27 07:23:00,
2013-01-27 01:28:00,21.7,14.0,31.66,SE,127,4.0,5.4,71,0.00,,OVC,0.00,VWS V13.01,2013-01-27 07:28:00,
2013-01-27 01:33:00,21.7,14.0,31.66,SSE,157,0.0,3.6,71,0.00,,OVC,0.00,VWS V13.01,2013-01-27 07:33:00,
2013-01-27 01:38:00,21.7,14.0,31.66,SSE,167,2.7,3.6,71,0.00,,OVC,0.00,VWS V13.01,2013-01-27 07:38:00,
2013-01-27 01:43:00,21.7,14.0,31.66,SSE,159,4.9,6.3,71,0.00,,OVC,0.00,VWS V13.01,2013-01-27 07:43:00,
2013-01-27 01:48:00,21.9,14.1,31.66,SSE,159,3.6,3.6,71,0.00,,OVC,0.00,VWS V13.01,2013-01-27 07:48:00,
2013-01-27 01:53:00,21.9,14.1,31.66,ESE,115,2.7,4.0,71,0.00,,OVC,0.00,VWS V13.01,2013-01-27 07:53:00,
2013-01-27 01:58:00,21.9,14.1,31.66,SE,129,3.1,3.1,71,0.00,,OVC,0.00,VWS V13.01,2013-01-27 07:58:00,
2013-01-27 02:03:00,21.9,14.1,31.66,SE,140,3.1,3.6,71,0.00,,OVC,0.00,VWS V13.01,2013-01-27 08:03:00,
2013-01-27 02:08:00,22.3,14.5,31.66,SSE,158,6.3,6.3,71,0.00,,OVC,0.00,VWS V13.01,2013-01-27 08:08:00,
2013-01-27 02:13:00,22.5,14.6,31.66,SSE,160,2.2,2.2,71,0.00,,OVC,0.00,VWS V13.01,2013-01-27 08:13:00,
2013-01-27 02:18:00,22.6,14.8,31.66,SSE,161,0.0,2.7,71,0.00,,OVC,0.00,VWS V13.01,2013-01-27 08:18:00,
2013-01-27 02:23:00,22.8,15.0,31.66,SE,145,5.4,5.4,71,0.00,,OVC,0.00,VWS V13.01,2013-01-27 08:23:00,
2013-01-27 02:28:00,22.8,15.0,31.66,SSE,155,3.1,3.1,71,0.00,,OVC,0.00,VWS V13.01,2013-01-27 08:28:00,
2013-01-27 02:33:00,23.2,14.9,31.66,SE,134,4.9,5.4,70,0.00,,OVC,0.00,VWS V13.01,2013-01-27 08:33:00,
2013-01-27 02:38:00,23.4,15.1,31.66,SE,143,3.6,5.4,70,0.00,,OVC,0.00,VWS V13.01,2013-01-27 08:38:00,
2013-01-27 02:43:00,23.5,15.2,31.66,SSE,156,5.4,5.4,70,0.00,,OVC,0.00,VWS V13.01,2013-01-27 08:43:00,
2013-01-27 02:48:00,23.7,15.4,31.66,SSE,154,8.3,8.3,70,0.00,,OVC,0.00,VWS V13.01,2013-01-27 08:48:00,
2013-01-27 02:53:00,23.7,15.4,31.66,SE,129,4.0,5.8,70,0.00,,OVC,0.00,VWS V13.01,2013-01-27 08:53:00,
2013-01-27 02:57:00,23.9,15.6,31.66,SE,138,3.6,3.6,70,0.00,,OVC,0.00,VWS V13.01,2013-01-27 08:57:00,
2013-01-27 03:02:00,24.1,15.8,31.63,SE,128,0.0,2.2,70,0.00,,OVC,0.00,VWS V13.01,2013-01-27 09:02:00,
2013-01-27 03:07:00,24.1,15.8,31.63,SE,127,2.7,5.8,70,0.00,,OVC,0.00,VWS V13.01,2013-01-27 09:07:00,
2013-01-27 03:12:00,24.1,15.8,31.63,SE,139,0.0,3.1,70,0.00,,OVC,0.00,VWS V13.01,2013-01-27 09:12:00,
2013-01-27 03:17:00,24.1,15.8,31.63,SSE,167,4.5,5.8,70,0.00,,OVC,0.00,VWS V13.01,2013-01-27 09:17:00,
2013-01-27 03:22:00,24.1,15.8,31.63,SE,136,2.7,3.1,70,0.00,,OVC,0.00,VWS V13.01,2013-01-27 09:22:00,
2013-01-27 03:27:00,24.1,15.8,31.63,SE,128,2.7,2.7,70,0.00,,OVC,0.00,VWS V13.01,2013-01-27 09:27:00,
2013-01-27 03:32:00,24.3,15.9,31.63,SSE,159,0.0,2.2,70,0.00,,OVC,0.00,VWS V13.01,2013-01-27 09:32:00,
2013-01-27 03:37:00,24.3,15.9,31.63,SE,133,3.1,4.9,70,0.00,,OVC,0.00,VWS V13.01,2013-01-27 09:37:00,
2013-01-27 03:42:00,24.3,15.9,31.63,SE,136,4.9,4.9,70,0.00,,OVC,0.00,VWS V13.01,2013-01-27 09:42:00,
2013-01-27 03:47:00,24.3,15.9,31.63,ESE,122,3.6,3.6,70,0.00,,OVC,0.00,VWS V13.01,2013-01-27 09:47:00,
2013-01-27 03:52:00,24.3,15.9,31.63,South,172,4.0,5.8,70,0.00,,OVC,0.00,VWS V13.01,2013-01-27 09:52:00,
2013-01-27 03:57:00,24.3,15.9,31.63,ESE,117,2.7,2.7,70,0.00,,OVC,0.00,VWS V13.01,2013-01-27 09:57:00,
2013-01-27 04:02:00,24.3,15.9,31.63,South,171,3.1,3.1,70,0.00,,OVC,0.00,VWS V13.01,2013-01-27 10:02:00,
2013-01-27 04:07:00,24.3,15.9,31.63,SE,138,4.0,4.9,70,0.00,,OVC,0.00,VWS V13.01,2013-01-27 10:07:00,
2013-01-27 04:12:00,24.3,15.9,31.63,South,175,2.2,3.1,70,0.00,,OVC,0.00,VWS V13.01,2013-01-27 10:12:00,
2013-01-27 04:17:00,24.3,15.9,31.63,SE,128,4.9,4.9,70,0.00,,OVC,0.00,VWS V13.01,2013-01-27 10:17:00,
2013-01-27 04:22:00,24.3,15.9,31.63,SE,133,4.0,4.0,70,0.00,,OVC,0.00,VWS V13.01,2013-01-27 10:22:00,
2013-01-27 04:27:00,24.3,15.9,31.63,SE,135,5.8,5.8,70,0.00,,OVC,0.00,VWS V13.01,2013-01-27 10:27:00,
2013-01-27 04:32:00,24.4,16.1,31.63,SE,125,3.6,3.6,70,0.00,,OVC,0.00,VWS V13.01,2013-01-27 10:32:00,
2013-01-27 04:37:00,24.4,16.1,31.63,SE,137,6.3,6.3,70,0.00,,OVC,0.00,VWS V13.01,2013-01-27 10:37:00,
2013-01-27 04:42:00,24.4,16.1,31.63,SE,143,2.7,4.0,70,0.00,,OVC,0.00,VWS V13.01,2013-01-27 10:42:00,
2013-01-27 04:47:00,24.4,16.1,31.63,ESE,122,2.7,2.7,70,0.00,,OVC,0.00,VWS V13.01,2013-01-27 10:47:00,
2013-01-27 04:52:00,24.4,16.1,31.63,SE,136,4.0,4.9,70,0.00,,OVC,0.00,VWS V13.01,2013-01-27 10:52:00,
2013-01-27 04:57:00,24.4,16.1,31.63,SE,134,3.6,3.6,70,0.00,,OVC,0.00,VWS V13.01,2013-01-27 10:57:00,
2013-01-27 05:02:00,24.4,16.1,31.63,SE,145,4.9,4.9,70,0.00,,OVC,0.00,VWS V13.01,2013-01-27 11:02:00,
2013-01-27 05:07:00,24.4,16.1,31.63,ESE,122,0.0,0.0,70,0.00,,OVC,0.00,VWS V13.01,2013-01-27 11:07:00,
2013-01-27 05:12:00,24.6,16.3,31.63,SE,142,4.0,4.9,70,0.00,,OVC,0.00,VWS V13.01,2013-01-27 11:12:00,
2013-01-27 05:17:00,24.6,16.3,31.63,SE,127,3.6,3.6,70,0.00,,OVC,0.00,VWS V13.01,2013-01-27 11:17:00,
2013-01-27 05:22:00,24.6,16.3,31.63,SE,138,3.6,3.6,70,0.00,,OVC,0.00,VWS V13.01,2013-01-27 11:22:00,
2013-01-27 05:27:00,24.8,16.4,31.63,SE,136,3.6,4.9,70,0.00,,OVC,0.00,VWS V13.01,2013-01-27 11:27:00,
2013-01-27 05:32:00,24.8,16.4,31.60,SE,129,4.9,4.9,70,0.00,,OVC,0.00,VWS V13.01,2013-01-27 11:32:00,
2013-01-27 05:37:00,24.8,16.4,31.60,SSE,151,4.0,5.4,70,0.00,,OVC,0.00,VWS V13.01,2013-01-27 11:37:00,
2013-01-27 05:42:00,24.8,16.4,31.60,SE,140,3.6,4.0,70,0.00,,OVC,0.00,VWS V13.01,2013-01-27 11:42:00,
2013-01-27 05:47:00,25.0,16.6,31.60,SE,136,6.3,6.3,70,0.00,,OVC,0.00,VWS V13.01,2013-01-27 11:47:00,
2013-01-27 05:52:00,25.0,16.6,31.60,SE,143,5.8,5.8,70,0.00,,OVC,0.00,VWS V13.01,2013-01-27 11:52:00,
2013-01-27 05:57:00,25.0,16.6,31.60,SE,143,5.4,5.4,70,0.00,,OVC,0.00,VWS V13.01,2013-01-27 11:57:00,
2013-01-27 06:02:00,25.0,16.6,31.60,South,173,6.3,6.3,70,0.00,,OVC,0.00,VWS V13.01,2013-01-27 12:02:00,
2013-01-27 06:07:00,25.0,16.6,31.60,ESE,113,0.0,0.0,70,0.00,,OVC,0.00,VWS V13.01,2013-01-27 12:07:00,
2013-01-27 06:12:00,25.0,16.6,31.60,ESE,113,0.0,3.1,70,0.00,,OVC,0.00,VWS V13.01,2013-01-27 12:12:00,
2013-01-27 06:17:00,25.0,16.6,31.60,SE,134,4.9,6.3,70,0.00,,OVC,0.00,VWS V13.01,2013-01-27 12:17:00,
2013-01-27 06:22:00,25.2,16.8,31.60,SE,139,2.2,4.0,70,0.00,,OVC,0.00,VWS V13.01,2013-01-27 12:22:00,
2013-01-27 06:27:00,25.2,16.8,31.60,SE,135,3.6,3.6,70,0.00,,OVC,0.00,VWS V13.01,2013-01-27 12:27:00,
2013-01-27 06:32:00,25.2,16.8,31.60,SE,129,3.1,3.6,70,0.00,,OVC,0.00,VWS V13.01,2013-01-27 12:32:00,
2013-01-27 06:37:00,25.2,16.8,31.60,SSE,155,4.5,7.6,70,0.00,,OVC,0.00,VWS V13.01,2013-01-27 12:37:00,
2013-01-27 06:42:00,25.3,17.0,31.60,SE,132,4.0,5.4,70,0.00,,OVC,0.00,VWS V13.01,2013-01-27 12:42:00,
2013-01-27 06:47:00,25.3,17.0,31.60,SE,138,3.1,3.1,70,0.00,,OVC,0.00,VWS V13.01,2013-01-27 12:47:00,
2013-01-27 06:52:00,25.3,17.0,31.60,South,170,0.0,3.1,70,0.00,,OVC,0.00,VWS V13.01,2013-01-27 12:52:00,
2013-01-27 06:57:00,25.3,17.0,31.60,ESE,121,2.7,4.0,70,0.00,,OVC,0.00,VWS V13.01,2013-01-27 12:57:00,
2013-01-27 07:02:00,25.3,17.0,31.60,SE,129,2.2,4.0,70,0.00,,OVC,0.00,VWS V13.01,2013-01-27 13:02:00,
2013-01-27 07:07:00,25.3,17.0,31.60,SE,135,3.6,4.0,70,0.00,,OVC,0.00,VWS V13.01,2013-01-27 13:07:00,
2013-01-27 07:12:00,25.3,17.0,31.60,SSE,162,0.0,0.0,70,0.00,,OVC,0.00,VWS V13.01,2013-01-27 13:12:00,
2013-01-27 07:17:00,25.3,17.0,31.60,SE,136,3.6,4.0,70,0.00,,OVC,0.00,VWS V13.01,2013-01-27 13:17:00,
2013-01-27 07:22:00,25.3,17.0,31.60,ESE,123,3.1,4.5,70,0.00,,OVC,0.00,VWS V13.01,2013-01-27 13:22:00,
2013-01-27 07:27:00,25.3,17.0,31.60,SE,133,0.0,3.1,70,0.00,,OVC,0.00,VWS V13.01,2013-01-27 13:27:00,
2013-01-27 07:32:00,25.3,17.0,31.60,SE,133,2.2,4.0,70,0.00,,OVC,0.00,VWS V13.01,2013-01-27 13:32:00,
2013-01-27 07:37:00,25.5,17.1,31.60,SE,127,6.3,6.3,70,0.00,,OVC,0.00,VWS V13.01,2013-01-27 13:37:00,
2013-01-27 07:42:00,25.5,17.1,31.60,SE,140,3.6,4.9,70,0.00,,OVC,0.00,VWS V13.01,2013-01-27 13:42:00,
2013-01-27 07:47:00,25.5,17.1,31.60,SSE,168,3.6,3.6,70,0.00,,OVC,0.00,VWS V13.01,2013-01-27 13:47:00,
2013-01-27 07:52:00,25.5,17.1,31.60,SE,135,6.3,8.3,70,0.00,,OVC,0.00,VWS V13.01,2013-01-27 13:52:00,
2013-01-27 07:57:00,25.7,17.3,31.60,ESE,116,5.8,6.3,70,0.00,,OVC,0.00,VWS V13.01,2013-01-27 13:57:00,
2013-01-27 08:02:00,25.7,17.3,31.63,SSE,153,3.1,5.4,70,0.00,,OVC,0.00,VWS V13.01,2013-01-27 14:02:00,
2013-01-27 08:07:00,25.7,17.3,31.63,SE,124,5.4,5.4,70,0.00,,OVC,0.00,VWS V13.01,2013-01-27 14:07:00,
2013-01-27 08:12:00,25.9,17.5,31.63,SSE,161,5.8,7.2,70,0.00,,OVC,0.00,VWS V13.01,2013-01-27 14:12:00,
2013-01-27 08:17:00,26.1,17.6,31.63,SE,143,4.9,4.9,70,0.00,,OVC,0.00,VWS V13.01,2013-01-27 14:17:00,
2013-01-27 08:22:00,26.1,17.6,31.63,ESE,116,3.1,5.4,70,0.00,,OVC,0.00,VWS V13.01,2013-01-27 14:22:00,
2013-01-27 08:27:00,26.1,17.6,31.63,ESE,118,3.6,4.9,70,0.00,,OVC,0.00,VWS V13.01,2013-01-27 14:27:00,
2013-01-27 08:32:00,26.2,17.8,31.63,SE,128,0.0,4.0,70,0.00,,OVC,0.00,VWS V13.01,2013-01-27 14:32:00,
2013-01-27 08:37:00,26.2,17.8,31.63,SSE,163,2.7,2.7,70,0.00,,OVC,0.00,VWS V13.01,2013-01-27 14:37:00,
2013-01-27 08:42:00,26.4,18.0,31.63,ESE,118,4.9,5.8,70,0.00,,OVC,0.00,VWS V13.01,2013-01-27 14:42:00,
2013-01-27 08:47:00,26.6,18.2,31.60,ESE,115,3.1,4.0,70,0.00,,OVC,0.00,VWS V13.01,2013-01-27 14:47:00,
2013-01-27 08:52:00,26.6,18.2,31.60,SE,133,3.6,5.4,70,0.00,,OVC,0.00,VWS V13.01,2013-01-27 14:52:00,
2013-01-27 08:57:00,26.8,18.3,31.60,SE,145,5.8,6.3,70,0.00,,OVC,0.00,VWS V13.01,2013-01-27 14:57:00,
2013-01-27 09:02:00,26.8,18.3,31.60,SE,143,3.6,3.6,70,0.00,,OVC,0.00,VWS V13.01,2013-01-27 15:02:00,
2013-01-27 09:07:00,27.0,18.5,31.60,SE,133,6.3,6.3,70,0.00,,OVC,0.00,VWS V13.01,2013-01-27 15:07:00,
2013-01-27 09:12:00,27.0,18.5,31.60,SE,137,4.5,8.1,70,0.00,,OVC,0.00,VWS V13.01,2013-01-27 15:12:00,
2013-01-27 09:17:00,27.1,18.7,31.60,South,189,4.9,4.9,70,0.00,,OVC,0.00,VWS V13.01,2013-01-27 15:17:00,
2013-01-27 09:22:00,27.1,18.7,31.60,ESE,108,5.4,8.7,70,0.00,,OVC,0.00,VWS V13.01,2013-01-27 15:22:00,
2013-01-27 09:27:00,27.3,18.9,31.60,SE,137,5.8,5.8,70,0.00,,OVC,0.00,VWS V13.01,2013-01-27 15:27:00,
2013-01-27 09:32:00,27.5,19.0,31.60,ESE,120,3.1,4.0,70,0.00,,OVC,0.00,VWS V13.01,2013-01-27 15:32:00,
2013-01-27 09:37:00,27.5,19.0,31.60,ESE,111,8.1,8.1,70,0.00,,OVC,0.00,VWS V13.01,2013-01-27 15:37:00,
2013-01-27 09:42:00,27.7,19.2,31.60,South,177,2.7,2.7,70,0.00,,OVC,0.00,VWS V13.01,2013-01-27 15:42:00,
2013-01-27 09:46:00,27.9,19.4,31.60,SE,127,5.4,5.4,70,0.00,,OVC,0.00,VWS V13.01,2013-01-27 15:46:00,
2013-01-27 09:51:00,27.9,19.4,31.60,SE,130,4.9,5.4,70,0.00,,OVC,0.00,VWS V13.01,2013-01-27 15:51:00,
2013-01-27 09:56:00,27.9,19.4,31.60,SSW,196,2.2,3.1,70,0.00,,OVC,0.00,VWS V13.01,2013-01-27 15:56:00,
2013-01-27 10:01:00,28.0,19.5,31.60,South,171,3.1,4.0,70,0.00,,OVC,0.00,VWS V13.01,2013-01-27 16:01:00,
2013-01-27 10:06:00,28.2,19.7,31.60,ESE,116,5.4,5.4,70,0.00,,OVC,0.00,VWS V13.01,2013-01-27 16:06:00,
2013-01-27 10:11:00,28.4,19.9,31.60,SE,127,2.7,2.7,70,0.00,,OVC,0.00,VWS V13.01,2013-01-27 16:11:00,
2013-01-27 10:16:00,28.4,19.9,31.60,SE,141,0.0,0.0,70,0.00,,OVC,0.00,VWS V13.01,2013-01-27 16:16:00,
2013-01-27 10:21:00,28.4,19.9,31.60,South,176,4.9,5.8,70,0.00,,OVC,0.00,VWS V13.01,2013-01-27 16:21:00,
2013-01-27 10:26:00,28.4,19.9,31.60,ESE,119,8.1,8.1,70,0.00,,OVC,0.00,VWS V13.01,2013-01-27 16:26:00,
2013-01-27 10:31:00,28.4,19.9,31.60,West,259,2.2,6.3,70,0.00,,OVC,0.00,VWS V13.01,2013-01-27 16:31:00,
2013-01-27 10:36:00,28.4,19.9,31.60,ESE,113,4.0,4.0,70,0.00,,OVC,0.00,VWS V13.01,2013-01-27 16:36:00,
2013-01-27 10:41:00,28.4,19.9,31.60,SE,128,0.0,0.0,70,0.00,,OVC,0.00,VWS V13.01,2013-01-27 16:41:00,
2013-01-27 10:46:00,28.6,19.6,31.57,SE,144,2.7,4.0,69,0.00,,OVC,0.00,VWS V13.01,2013-01-27 16:46:00,
2013-01-27 10:51:00,28.6,19.6,31.57,SE,146,3.6,5.4,69,0.00,,OVC,0.00,VWS V13.01,2013-01-27 16:51:00,
2013-01-27 10:56:00,28.6,19.6,31.57,SE,134,0.0,0.0,69,0.00,,OVC,0.00,VWS V13.01,2013-01-27 16:56:00,
2013-01-27 11:01:00,28.8,19.8,31.57,SE,139,2.2,4.9,69,0.00,,OVC,0.00,VWS V13.01,2013-01-27 17:01:00,
2013-01-27 11:06:00,28.9,19.9,31.57,SE,141,3.6,3.6,69,0.00,,OVC,0.00,VWS V13.01,2013-01-27 17:06:00,
2013-01-27 11:11:00,29.1,20.1,31.57,SE,126,4.0,4.0,69,0.00,,OVC,0.00,VWS V13.01,2013-01-27 17:11:00,
2013-01-27 11:16:00,29.1,20.1,31.57,SE,127,7.2,7.2,69,0.00,,OVC,0.00,VWS V13.01,2013-01-27 17:16:00,
2013-01-27 11:21:00,29.3,20.3,31.57,SSE,151,7.6,7.6,69,0.00,,OVC,0.00,VWS V13.01,2013-01-27 17:21:00,
2013-01-27 11:26:00,29.3,20.3,31.57,SE,144,2.7,6.3,69,0.00,,OVC,0.00,VWS V13.01,2013-01-27 17:26:00,
2013-01-27 11:31:00,29.3,20.3,31.54,SSE,151,2.7,8.3,69,0.00,,OVC,0.00,VWS V13.01,2013-01-27 17:31:00,
2013-01-27 11:36:00,29.1,20.1,31.54,SSE,153,5.4,5.4,69,0.00,,OVC,0.00,VWS V13.01,2013-01-27 17:36:00,
2013-01-27 11:41:00,29.1,20.1,31.54,ESE,116,10.5,10.5,69,0.00,,OVC,0.00,VWS V13.01,2013-01-27 17:41:00,
2013-01-27 11:46:00,29.1,20.1,31.51,SE,137,2.7,4.9,69,0.00,,OVC,0.00,VWS V13.01,2013-01-27 17:46:00,
2013-01-27 11:51:00,29.3,20.3,31.51,SE,140,7.6,10.1,69,0.00,,OVC,0.00,VWS V13.01,2013-01-27 17:51:00,
2013-01-27 11:56:00,29.3,20.3,31.51,SE,131,10.5,10.5,69,0.00,,OVC,0.00,VWS V13.01,2013-01-27 17:56:00,
2013-01-27 12:01:00,29.3,20.3,31.51,SE,138,2.2,4.0,69,0.00,,OVC,0.00,VWS V13.01,2013-01-27 18:01:00,
2013-01-27 12:06:00,29.3,20.3,31.51,ESE,122,6.3,10.1,69,0.00,,OVC,0.00,VWS V13.01,2013-01-27 18:06:00,
2013-01-27 12:11:00,29.3,20.8,31.51,SE,128,6.3,8.7,70,0.00,,OVC,0.00,VWS V13.01,2013-01-27 18:11:00,
2013-01-27 12:16:00,29.3,20.8,31.51,SSE,148,5.8,5.8,70,0.00,,OVC,0.00,VWS V13.01,2013-01-27 18:16:00,
2013-01-27 12:21:00,29.3,20.8,31.51,SE,130,4.0,4.9,70,0.00,,OVC,0.00,VWS V13.01,2013-01-27 18:21:00,
2013-01-27 12:26:00,29.3,20.8,31.51,SE,137,2.7,6.3,70,0.00,,OVC,0.00,VWS V13.01,2013-01-27 18:26:00,
2013-01-27 12:31:00,29.3,20.8,31.51,SE,141,5.4,5.4,70,0.00,,OVC,0.00,VWS V13.01,2013-01-27 18:31:00,
2013-01-27 12:36:00,29.3,20.8,31.51,ESE,115,8.7,8.7,70,0.00,,OVC,0.00,VWS V13.01,2013-01-27 18:36:00,
2013-01-27 12:41:00,29.3,20.8,31.51,SE,136,2.7,3.1,70,0.00,,OVC,0.00,VWS V13.01,2013-01-27 18:41:00,
2013-01-27 12:46:00,29.3,20.8,31.51,ESE,114,4.0,4.0,70,0.00,,OVC,0.00,VWS V13.01,2013-01-27 18:46:00,
2013-01-27 12:51:00,29.3,20.8,31.51,East,97,3.6,4.0,70,0.00,,OVC,0.00,VWS V13.01,2013-01-27 18:51:00,
2013-01-27 12:56:00,29.1,20.6,31.51,East,84,3.6,4.9,70,0.00,,OVC,0.00,VWS V13.01,2013-01-27 18:56:00,
2013-01-27 13:01:00,28.8,20.2,31.48,SE,130,3.1,4.0,70,0.00,,OVC,0.00,VWS V13.01,2013-01-27 19:01:00,
2013-01-27 13:06:00,28.6,20.1,31.48,ESE,113,5.8,6.3,70,0.00,,OVC,0.00,VWS V13.01,2013-01-27 19:06:00,
2013-01-27 13:11:00,28.4,20.4,31.48,SE,143,3.6,5.8,71,0.00,,OVC,0.00,VWS V13.01,2013-01-27 19:11:00,
2013-01-27 13:16:00,28.2,20.7,31.48,ESE,114,4.0,4.0,73,0.00,,OVC,0.00,VWS V13.01,2013-01-27 19:16:00,
2013-01-27 13:21:00,28.2,21.1,31.48,ESE,116,5.8,5.8,74,0.00,,OVC,0.00,VWS V13.01,2013-01-27 19:21:00,
2013-01-27 13:26:00,28.2,21.1,31.48,ESE,122,3.6,5.8,74,0.00,,OVC,0.00,VWS V13.01,2013-01-27 19:26:00,
2013-01-27 13:31:00,28.2,21.6,31.46,SE,136,2.7,5.8,76,0.00,,OVC,0.00,VWS V13.01,2013-01-27 19:31:00,
2013-01-27 13:36:00,28.4,22.2,31.46,SE,135,5.4,5.8,77,0.00,,OVC,0.00,VWS V13.01,2013-01-27 19:36:00,
2013-01-27 13:41:00,28.6,22.4,31.46,ESE,122,5.8,5.8,77,0.00,,OVC,0.00,VWS V13.01,2013-01-27 19:41:00,
2013-01-27 13:46:00,28.6,22.4,31.46,ESE,123,2.7,2.7,77,0.00,,OVC,0.00,VWS V13.01,2013-01-27 19:46:00,
2013-01-27 13:51:00,28.8,22.5,31.46,SE,146,6.3,6.3,77,0.00,,OVC,0.00,VWS V13.01,2013-01-27 19:51:00,
2013-01-27 13:56:00,28.9,23.1,31.46,ESE,119,7.6,10.1,79,0.00,,OVC,0.00,VWS V13.01,2013-01-27 19:56:00,
2013-01-27 14:01:00,29.1,23.3,31.46,ESE,120,4.9,6.3,79,0.00,,OVC,0.00,VWS V13.01,2013-01-27 20:01:00,
2013-01-27 14:06:00,28.9,23.6,31.46,SE,126,6.7,7.6,80,0.00,,OVC,0.00,VWS V13.01,2013-01-27 20:06:00,
2013-01-27 14:11:00,28.9,23.6,31.46,ESE,114,4.0,8.3,80,0.00,,OVC,0.00,VWS V13.01,2013-01-27 20:11:00,
2013-01-27 14:16:00,28.9,24.0,31.43,ESE,107,5.8,6.3,82,0.00,,OVC,0.00,VWS V13.01,2013-01-27 20:16:00,
2013-01-27 14:21:00,28.9,24.0,31.43,ENE,61,4.0,5.4,82,0.00,,OVC,0.00,VWS V13.01,2013-01-27 20:21:00,
2013-01-27 14:26:00,28.9,24.0,31.43,SSE,148,4.0,4.0,82,0.00,,OVC,0.00,VWS V13.01,2013-01-27 20:26:00,
2013-01-27 14:31:00,29.1,24.2,31.46,SSE,151,4.0,5.8,82,0.00,,OVC,0.00,VWS V13.01,2013-01-27 20:31:00,
2013-01-27 14:36:00,29.1,24.2,31.46,SE,137,2.7,2.7,82,0.00,,OVC,0.00,VWS V13.01,2013-01-27 20:36:00,
2013-01-27 14:41:00,29.3,24.8,31.46,ESE,117,4.0,4.0,83,0.00,,OVC,0.00,VWS V13.01,2013-01-27 20:41:00,
2013-01-27 14:46:00,29.5,24.5,31.46,East,97,5.4,8.3,82,0.00,,OVC,0.00,VWS V13.01,2013-01-27 20:46:00,
2013-01-27 14:51:00,29.5,24.5,31.43,ESE,104,3.1,4.9,82,0.00,,OVC,0.00,VWS V13.01,2013-01-27 20:51:00,
2013-01-27 14:56:00,29.3,24.8,31.43,SE,127,6.3,6.3,83,0.00,,OVC,0.00,VWS V13.01,2013-01-27 20:56:00,
2013-01-27 15:01:00,29.3,24.8,31.43,SE,137,4.9,4.9,83,0.00,,OVC,0.00,VWS V13.01,2013-01-27 21:01:00,
2013-01-27 15:06:00,29.5,24.9,31.43,ESE,104,5.8,5.8,83,0.00,,OVC,0.00,VWS V13.01,2013-01-27 21:06:00,
2013-01-27 15:11:00,29.5,24.9,31.43,East,101,4.9,4.9,83,0.00,,OVC,0.00,VWS V13.01,2013-01-27 21:11:00,
2013-01-27 15:16:00,29.7,25.1,31.40,East,100,4.9,6.7,83,0.00,,OVC,0.00,VWS V13.01,2013-01-27 21:16:00,
2013-01-27 15:21:00,29.8,25.3,31.40,East,81,6.3,7.6,83,0.00,,OVC,0.00,VWS V13.01,2013-01-27 21:21:00,
2013-01-27 15:26:00,29.8,25.3,31.40,ENE,74,2.7,3.6,83,0.00,,OVC,0.00,VWS V13.01,2013-01-27 21:26:00,
2013-01-27 15:31:00,29.8,25.3,31.40,SE,135,5.8,5.8,83,0.00,,OVC,0.00,VWS V13.01,2013-01-27 21:31:00,
2013-01-27 15:36:00,30.0,25.5,31.37,ESE,114,8.3,8.3,83,0.00,,OVC,0.00,VWS V13.01,2013-01-27 21:36:00,
2013-01-27 15:41:00,30.0,25.5,31.37,ESE,119,3.1,6.3,83,0.00,,OVC,0.00,VWS V13.01,2013-01-27 21:41:00,
2013-01-27 15:46:00,30.0,25.5,31.40,ESE,118,5.4,5.8,83,0.00,,OVC,0.00,VWS V13.01,2013-01-27 21:46:00,
2013-01-27 15:51:00,30.2,25.6,31.40,ESE,105,4.9,8.1,83,0.00,,OVC,0.00,VWS V13.01,2013-01-27 21:51:00,
2013-01-27 15:56:00,30.2,25.2,31.40,East,93,5.8,6.3,82,0.00,,OVC,0.00,VWS V13.01,2013-01-27 21:56:00,
2013-01-27 16:01:00,30.2,24.8,31.37,ESE,117,4.0,5.8,80,0.00,,OVC,0.00,VWS V13.01,2013-01-27 22:01:00,
2013-01-27 16:06:00,30.2,24.8,31.37,SSE,147,4.0,5.4,80,0.00,,OVC,0.00,VWS V13.01,2013-01-27 22:06:00,
2013-01-27 16:11:00,30.2,24.8,31.37,SE,138,3.1,4.9,80,0.00,,OVC,0.00,VWS V13.01,2013-01-27 22:11:00,
2013-01-27 16:16:00,30.2,25.2,31.37,SE,131,6.3,6.3,82,0.00,,OVC,0.00,VWS V13.01,2013-01-27 22:16:00,
2013-01-27 16:21:00,30.0,25.0,31.37,NE,44,3.1,4.5,82,0.00,,OVC,0.00,VWS V13.01,2013-01-27 22:21:00,
2013-01-27 16:26:00,30.0,25.5,31.37,SE,137,4.0,4.0,83,0.00,,OVC,0.00,VWS V13.01,2013-01-27 22:26:00,
2013-01-27 16:31:00,30.0,25.5,31.37,SE,138,5.4,6.3,83,0.00,,OVC,0.00,VWS V13.01,2013-01-27 22:31:00,
2013-01-27 16:36:00,30.0,25.5,31.37,SE,139,0.0,4.0,83,0.00,,OVC,0.00,VWS V13.01,2013-01-27 22:36:00,
2013-01-27 16:41:00,30.0,25.9,31.37,ESE,117,3.6,5.8,84,0.00,,OVC,0.00,VWS V13.01,2013-01-27 22:41:00,
2013-01-27 16:46:00,30.0,25.9,31.37,ESE,111,5.8,5.8,84,0.00,,OVC,0.00,VWS V13.01,2013-01-27 22:46:00,
2013-01-27 16:51:00,30.2,26.1,31.37,ESE,102,3.6,3.6,84,0.00,,OVC,0.00,VWS V13.01,2013-01-27 22:51:00,
2013-01-27 16:56:00,30.2,26.5,31.37,ESE,118,3.6,5.8,86,0.00,,OVC,0.00,VWS V13.01,2013-01-27 22:56:00,
2013-01-27 17:01:00,30.4,26.6,31.37,SE,136,6.3,8.3,86,0.00,,OVC,0.00,VWS V13.01,2013-01-27 23:01:00,
2013-01-27 17:06:00,30.6,27.2,31.37,SE,130,4.0,5.8,87,0.00,,OVC,0.00,VWS V13.01,2013-01-27 23:06:00,
2013-01-27 17:11:00,30.7,27.4,31.37,SE,143,4.9,5.4,87,0.00,,OVC,0.00,VWS V13.01,2013-01-27 23:11:00,
2013-01-27 17:16:00,30.9,28.0,31.37,SE,128,6.7,6.7,89,0.00,,OVC,0.00,VWS V13.01,2013-01-27 23:16:00,
2013-01-27 17:21:00,30.9,28.0,31.34,South,178,4.0,5.4,89,0.00,,OVC,0.00,VWS V13.01,2013-01-27 23:21:00,
2013-01-27 17:26:00,31.1,28.1,31.34,SE,132,4.0,5.8,89,0.00,,OVC,0.00,VWS V13.01,2013-01-27 23:26:00,
2013-01-27 17:31:00,31.1,28.5,31.34,SE,140,3.6,3.6,90,0.00,,OVC,0.00,VWS V13.01,2013-01-27 23:31:00,
2013-01-27 17:36:00,31.1,28.5,31.34,SE,136,3.1,5.4,90,0.00,,OVC,0.00,VWS V13.01,2013-01-27 23:36:00,
2013-01-27 17:40:00,31.1,28.5,31.34,ESE,120,3.6,6.3,90,0.00,,OVC,0.00,VWS V13.01,2013-01-27 23:40:00,
2013-01-27 17:45:00,31.1,28.9,31.34,SE,140,7.6,8.3,92,0.00,,OVC,0.00,VWS V13.01,2013-01-27 23:45:00,
2013-01-27 17:50:00,31.1,28.9,31.34,SE,135,3.1,3.1,92,0.00,,OVC,0.00,VWS V13.01,2013-01-27 23:50:00,
2013-01-27 17:55:00,31.3,29.5,31.34,SE,130,4.0,4.9,93,0.00,,OVC,0.00,VWS V13.01,2013-01-27 23:55:00,
2013-01-27 18:00:00,31.3,29.5,31.34,SE,130,3.1,3.6,93,0.00,,OVC,0.00,VWS V13.01,2013-01-28 00:00:00,
2013-01-27 18:05:00,31.3,29.5,31.34,ESE,120,2.2,2.2,93,0.00,,OVC,0.00,VWS V13.01,2013-01-28 00:05:00,
2013-01-27 18:10:00,31.1,29.3,31.34,ESE,104,6.7,6.7,93,0.00,,OVC,0.00,VWS V13.01,2013-01-28 00:10:00,
2013-01-27 18:15:00,31.1,29.7,31.34,ESE,112,4.5,4.9,94,0.00,,OVC,0.00,VWS V13.01,2013-01-28 00:15:00,
2013-01-27 18:20:00,31.1,29.7,31.34,ESE,123,2.7,4.9,94,0.00,,OVC,0.00,VWS V13.01,2013-01-28 00:20:00,
2013-01-27 18:25:00,31.1,29.7,31.34,ESE,110,4.0,6.3,94,0.00,,OVC,0.00,VWS V13.01,2013-01-28 00:25:00,
2013-01-27 18:30:00,31.3,30.2,31.34,SE,136,5.4,6.7,96,0.00,,OVC,0.00,VWS V13.01,2013-01-28 00:30:00,
2013-01-27 18:35:00,31.3,30.2,31.34,ESE,118,6.3,8.1,96,0.00,,OVC,0.00,VWS V13.01,2013-01-28 00:35:00,
2013-01-27 18:40:00,31.3,30.6,31.34,ESE,105,4.9,5.8,97,0.00,,OVC,0.00,VWS V13.01,2013-01-28 00:40:00,
2013-01-27 18:45:00,31.3,30.6,31.34,ESE,123,5.8,7.2,97,0.00,,OVC,0.00,VWS V13.01,2013-01-28 00:45:00,
2013-01-27 18:50:00,31.5,30.8,31.31,SE,133,5.4,6.3,97,0.00,,OVC,0.00,VWS V13.01,2013-01-28 00:50:00,
2013-01-27 18:55:00,31.5,31.1,31.31,SE,132,2.7,2.7,99,0.00,,OVC,0.00,VWS V13.01,2013-01-28 00:55:00,
2013-01-27 19:00:00,31.5,31.1,31.31,SSE,153,6.3,6.3,99,0.00,,OVC,0.00,VWS V13.01,2013-01-28 01:00:00,
2013-01-27 19:05:00,31.6,31.3,31.31,SSE,153,5.8,5.8,99,0.00,,OVC,0.00,VWS V13.01,2013-01-28 01:05:00,
2013-01-27 19:10:00,31.6,31.6,31.31,ESE,108,2.7,4.9,100,0.00,,OVC,0.00,VWS V13.01,2013-01-28 01:10:00,
2013-01-27 19:15:00,31.8,31.8,31.31,SE,130,6.3,6.3,100,0.00,,OVC,0.00,VWS V13.01,2013-01-28 01:15:00,
2013-01-27 19:20:00,31.8,31.8,31.31,ESE,115,0.0,2.2,100,0.00,,OVC,0.00,VWS V13.01,2013-01-28 01:20:00,
2013-01-27 19:25:00,31.8,31.8,31.31,SE,131,2.2,2.2,100,0.00,,OVC,0.00,VWS V13.01,2013-01-28 01:25:00,
2013-01-27 19:30:00,32.0,32.0,31.31,SE,133,3.1,3.1,100,0.00,,OVC,0.00,VWS V13.01,2013-01-28 01:30:00,
2013-01-27 19:35:00,32.0,32.0,31.31,SE,137,3.1,4.0,100,0.00,,OVC,0.00,VWS V13.01,2013-01-28 01:35:00,
2013-01-27 19:40:00,32.2,32.2,31.31,SE,131,2.7,3.6,100,0.00,,OVC,0.00,VWS V13.01,2013-01-28 01:40:00,
2013-01-27 19:45:00,32.2,32.2,31.31,SE,138,2.7,2.7,100,0.00,,OVC,0.00,VWS V13.01,2013-01-28 01:45:00,
2013-01-27 19:50:00,32.2,32.2,31.31,SE,127,5.4,5.4,100,0.00,,OVC,0.00,VWS V13.01,2013-01-28 01:50:00,
2013-01-27 19:55:00,32.4,32.4,31.31,SE,145,3.1,5.8,100,0.00,,OVC,0.00,VWS V13.01,2013-01-28 01:55:00,
2013-01-27 20:00:00,32.5,32.5,31.31,SE,131,3.6,5.4,100,0.00,,OVC,0.00,VWS V13.01,2013-01-28 02:00:00,
2013-01-27 20:05:00,32.5,32.5,31.31,ESE,121,3.6,4.0,100,0.00,,OVC,0.00,VWS V13.01,2013-01-28 02:05:00,
2013-01-27 20:10:00,32.5,32.5,31.31,SSE,157,2.7,5.8,100,0.00,,OVC,0.00,VWS V13.01,2013-01-28 02:10:00,
2013-01-27 20:15:00,32.5,32.5,31.31,ESE,122,2.2,4.0,100,0.00,,OVC,0.00,VWS V13.01,2013-01-28 02:15:00,
2013-01-27 20:20:00,32.7,32.7,31.28,SE,135,3.1,4.9,100,0.00,,OVC,0.00,VWS V13.01,2013-01-28 02:20:00,
2013-01-27 20:25:00,32.7,32.7,31.28,ESE,122,0.0,3.1,100,0.00,,OVC,0.00,VWS V13.01,2013-01-28 02:25:00,
2013-01-27 20:30:00,32.7,32.7,31.28,SE,130,0.0,3.1,100,0.00,,OVC,0.00,VWS V13.01,2013-01-28 02:30:00,
2013-01-27 20:35:00,32.7,32.7,31.28,SE,129,5.4,5.4,100,0.00,,OVC,0.00,VWS V13.01,2013-01-28 02:35:00,
2013-01-27 20:40:00,32.7,32.7,31.28,SE,139,0.0,2.7,100,0.00,,OVC,0.00,VWS V13.01,2013-01-28 02:40:00,
2013-01-27 20:45:00,32.7,32.7,31.28,ESE,123,3.1,4.0,100,0.00,,OVC,0.00,VWS V13.01,2013-01-28 02:45:00,
2013-01-27 20:50:00,32.7,32.7,31.28,ESE,105,5.8,5.8,100,0.00,,OVC,0.00,VWS V13.01,2013-01-28 02:50:00,
2013-01-27 20:55:00,32.9,32.9,31.28,SE,125,2.7,2.7,100,0.00,,OVC,0.00,VWS V13.01,2013-01-28 02:55:00,
2013-01-27 21:00:00,32.9,32.9,31.28,SE,126,0.0,0.0,100,0.00,,OVC,0.00,VWS V13.01,2013-01-28 03:00:00,
2013-01-27 21:05:00,32.9,32.9,31.28,SE,135,4.0,4.0,100,0.00,,OVC,0.00,VWS V13.01,2013-01-28 03:05:00,
2013-01-27 21:10:00,32.9,32.9,31.28,SE,134,2.7,4.0,100,0.00,,OVC,0.00,VWS V13.01,2013-01-28 03:10:00,
2013-01-27 21:15:00,32.9,32.9,31.28,SE,133,0.0,3.1,100,0.00,,OVC,0.00,VWS V13.01,2013-01-28 03:15:00,
2013-01-27 21:20:00,32.9,32.9,31.28,SE,130,0.0,4.0,100,0.00,,OVC,0.00,VWS V13.01,2013-01-28 03:20:00,
2013-01-27 21:25:00,32.9,32.9,31.28,ESE,105,3.6,3.6,100,0.00,,OVC,0.00,VWS V13.01,2013-01-28 03:25:00,
2013-01-27 21:30:00,33.1,33.1,31.28,SE,133,4.0,5.8,100,0.00,,OVC,0.00,VWS V13.01,2013-01-28 03:30:00,
2013-01-27 21:35:00,33.1,33.1,31.28,SSE,147,3.6,5.8,100,0.00,,OVC,0.00,VWS V13.01,2013-01-28 03:35:00,
2013-01-27 21:40:00,33.1,33.1,31.28,SE,137,4.9,5.4,100,0.00,,OVC,0.00,VWS V13.01,2013-01-28 03:40:00,
2013-01-27 21:45:00,33.1,33.1,31.28,SE,131,6.3,6.3,100,0.00,,OVC,0.00,VWS V13.01,2013-01-28 03:45:00,
2013-01-27 21:50:00,33.1,33.1,31.25,SE,129,2.7,4.0,100,0.00,,OVC,0.00,VWS V13.01,2013-01-28 03:50:00,
2013-01-27 21:55:00,33.1,33.1,31.25,SE,139,2.7,3.1,100,0.00,,OVC,0.00,VWS V13.01,2013-01-28 03:55:00,
2013-01-27 22:00:00,33.1,33.1,31.25,SSE,150,2.7,5.8,100,0.00,,OVC,0.00,VWS V13.01,2013-01-28 04:00:00,
2013-01-27 22:05:00,33.1,33.1,31.25,SE,130,4.0,4.0,100,0.00,,OVC,0.00,VWS V13.01,2013-01-28 04:05:00,
2013-01-27 22:10:00,33.1,33.1,31.25,SE,136,0.0,0.0,100,0.00,,OVC,0.00,VWS V13.01,2013-01-28 04:10:00,
2013-01-27 22:15:00,33.1,33.1,31.25,SE,143,6.3,6.3,100,0.00,,OVC,0.00,VWS V13.01,2013-01-28 04:15:00,
2013-01-27 22:20:00,33.3,33.3,31.25,SE,125,3.1,3.6,100,0.00,,OVC,0.00,VWS V13.01,2013-01-28 04:20:00,
2013-01-27 22:25:00,33.3,33.3,31.25,ESE,117,2.2,3.6,100,0.00,,OVC,0.00,VWS V13.01,2013-01-28 04:25:00,
2013-01-27 22:30:00,33.3,33.3,31.25,ESE,118,3.1,4.0,100,0.00,,OVC,0.00,VWS V13.01,2013-01-28 04:30:00,
2013-01-27 22:35:00,33.3,33.3,31.25,SE,131,2.7,2.7,100,0.00,,OVC,0.00,VWS V13.01,2013-01-28 04:35:00,
2013-01-27 22:40:00,33.3,33.3,31.25,ESE,123,3.1,4.0,100,0.00,,OVC,0.00,VWS V13.01,2013-01-28 04:40:00,
2013-01-27 22:45:00,33.3,33.3,31.25,SE,146,0.0,0.0,100,0.00,,OVC,0.00,VWS V13.01,2013-01-28 04:45:00,
2013-01-27 22:50:00,33.3,33.3,31.25,SE,134,0.0,0.0,100,0.00,,OVC,0.00,VWS V13.01,2013-01-28 04:50:00,
2013-01-27 22:55:00,33.3,33.3,31.25,ESE,123,0.0,2.2,100,0.00,,OVC,0.00,VWS V13.01,2013-01-28 04:55:00,
2013-01-27 23:00:00,33.3,33.3,31.25,SSE,150,0.0,2.2,100,0.00,,OVC,0.00,VWS V13.01,2013-01-28 05:00:00,
2013-01-27 23:01:00,33.3,33.3,31.25,SSE,150,0.0,0.0,100,0.00,,OVC,0.00,VWS V13.01,2013-01-28 05:01:00,
2013-01-27 23:03:00,33.3,33.3,31.25,SSE,150,0.0,0.0,100,0.00,,OVC,0.00,VWS V13.01,2013-01-28 05:03:00,
2013-01-27 23:08:00,33.3,33.3,31.25,SE,127,0.0,0.0,100,0.00,,OVC,0.00,VWS V13.01,2013-01-28 05:08:00,
2013-01-27 23:13:00,33.4,33.4,31.25,SE,139,0.0,0.0,100,0.00,,OVC,0.00,VWS V13.01,2013-01-28 05:13:00,
2013-01-27 23:18:00,33.4,33.4,31.25,ESE,120,0.0,0.0,100,0.00,,OVC,0.00,VWS V13.01,2013-01-28 05:18:00,
2013-01-27 23:23:00,33.4,33.4,31.25,SE,125,0.0,0.0,100,0.00,,OVC,0.00,VWS V13.01,2013-01-28 05:23:00,
2013-01-27 23:28:00,33.4,33.4,31.25,SE,126,4.9,4.9,100,0.00,,OVC,0.00,VWS V13.01,2013-01-28 05:28:00,
2013-01-27 23:33:00,33.4,33.4,31.25,SE,138,0.0,0.0,100,0.00,,OVC,0.00,VWS V13.01,2013-01-28 05:33:00,
2013-01-27 23:38:00,33.4,33.4,31.25,SE,138,0.0,2.7,100,0.00,,OVC,0.00,VWS V13.01,2013-01-28 05:38:00,
2013-01-27 23:43:00,33.6,33.6,31.25,SE,126,2.2,3.6,100,0.00,,OVC,0.00,VWS V13.01,2013-01-28 05:43:00,
2013-01-27 23:48:00,33.6,33.6,31.22,SE,126,0.0,0.0,100,0.00,,OVC,0.00,VWS V13.01,2013-01-28 05:48:00,
2013-01-27 23:53:00,33.4,33.4,31.22,SE,126,0.0,0.0,100,0.00,,OVC,0.00,VWS V13.01,2013-01-28 05:53:00,
2013-01-27 23:58:00,33.4,33.4,31.22,SE,129,0.0,3.1,100,0.00,,OVC,0.00,VWS V13.01,2013-01-28 05:58:00,